ADDS METAR Data INFO
IDs: Format: Raw Decoded Include TAF

Data at: 0056 UTC 22 Oct 2017

METAR for:KVNC (Venice Muni, FL, US)
Text:KVNC 220055Z AUTO 06010KT 10SM 26/21 A3009 RMK AO2
Temperature: 26.0°C ( 79°F)
Dewpoint: 21.0°C ( 70°F) [RH = 74%]
Pressure (altimeter):30.09 inches Hg (1019.0 mb)
Winds:from the ENE (60 degrees) at 12 MPH (10 knots; 5.1 m/s)
Visibility:10 or more sm (16+ km)
QC Flag:automated observation with no human augmentation